sensor_id;sensor_type;location;lat;lon;timestamp;P1;durP1;ratioP1;P2;durP2;ratioP2
16310;SDS011;8264;48.510;8.872;2022-11-15T00:00:53;5.23;;;4.47;;
16310;SDS011;8264;48.510;8.872;2022-11-15T00:03:20;6.20;;;4.30;;
16310;SDS011;8264;48.510;8.872;2022-11-15T00:05:48;5.70;;;4.70;;
16310;SDS011;8264;48.510;8.872;2022-11-15T00:08:15;6.43;;;4.77;;
16310;SDS011;8264;48.510;8.872;2022-11-15T00:10:42;6.47;;;4.50;;
16310;SDS011;8264;48.510;8.872;2022-11-15T00:13:09;5.93;;;3.83;;
16310;SDS011;8264;48.510;8.872;2022-11-15T00:15:37;5.80;;;4.87;;
16310;SDS011;8264;48.510;8.872;2022-11-15T00:18:06;5.63;;;4.23;;
16310;SDS011;8264;48.510;8.872;2022-11-15T00:20:33;6.73;;;4.60;;
16310;SDS011;8264;48.510;8.872;2022-11-15T00:23:00;6.73;;;4.20;;
16310;SDS011;8264;48.510;8.872;2022-11-15T00:25:26;5.97;;;4.37;;
16310;SDS011;8264;48.510;8.872;2022-11-15T00:27:54;5.73;;;4.60;;
16310;SDS011;8264;48.510;8.872;2022-11-15T00:30:21;5.93;;;4.80;;
16310;SDS011;8264;48.510;8.872;2022-11-15T00:32:48;6.93;;;4.80;;
16310;SDS011;8264;48.510;8.872;2022-11-15T00:35:16;5.87;;;4.83;;
16310;SDS011;8264;48.510;8.872;2022-11-15T00:37:43;7.83;;;4.70;;
16310;SDS011;8264;48.510;8.872;2022-11-15T00:40:10;7.57;;;4.97;;
16310;SDS011;8264;48.510;8.872;2022-11-15T00:42:37;7.33;;;4.57;;
16310;SDS011;8264;48.510;8.872;2022-11-15T00:45:04;5.90;;;4.30;;
16310;SDS011;8264;48.510;8.872;2022-11-15T00:47:31;6.57;;;4.70;;
16310;SDS011;8264;48.510;8.872;2022-11-15T00:49:58;7.83;;;4.50;;
16310;SDS011;8264;48.510;8.872;2022-11-15T00:52:26;10.70;;;4.57;;
16310;SDS011;8264;48.510;8.872;2022-11-15T00:54:53;6.77;;;4.67;;
16310;SDS011;8264;48.510;8.872;2022-11-15T00:57:19;7.33;;;4.50;;
16310;SDS011;8264;48.510;8.872;2022-11-15T00:59:46;5.67;;;4.43;;
16310;SDS011;8264;48.510;8.872;2022-11-15T01:02:12;5.23;;;4.40;;
16310;SDS011;8264;48.510;8.872;2022-11-15T01:04:39;5.70;;;4.50;;
16310;SDS011;8264;48.510;8.872;2022-11-15T01:07:05;7.63;;;4.27;;
16310;SDS011;8264;48.510;8.872;2022-11-15T01:12:00;8.23;;;3.60;;
16310;SDS011;8264;48.510;8.872;2022-11-15T01:14:26;5.23;;;4.23;;
16310;SDS011;8264;48.510;8.872;2022-11-15T01:16:53;6.20;;;4.03;;
16310;SDS011;8264;48.510;8.872;2022-11-15T01:19:20;6.03;;;4.53;;
16310;SDS011;8264;48.510;8.872;2022-11-15T01:21:48;6.33;;;4.00;;
16310;SDS011;8264;48.510;8.872;2022-11-15T01:24:14;8.23;;;4.80;;
16310;SDS011;8264;48.510;8.872;2022-11-15T01:26:41;6.47;;;4.10;;
16310;SDS011;8264;48.510;8.872;2022-11-15T01:29:09;4.70;;;4.20;;
16310;SDS011;8264;48.510;8.872;2022-11-15T01:31:35;4.87;;;4.03;;
16310;SDS011;8264;48.510;8.872;2022-11-15T01:34:02;7.50;;;3.93;;
16310;SDS011;8264;48.510;8.872;2022-11-15T01:36:28;4.90;;;3.50;;
16310;SDS011;8264;48.510;8.872;2022-11-15T01:38:55;5.73;;;3.90;;
16310;SDS011;8264;48.510;8.872;2022-11-15T01:41:23;4.37;;;3.30;;
16310;SDS011;8264;48.510;8.872;2022-11-15T01:43:51;5.90;;;4.03;;
16310;SDS011;8264;48.510;8.872;2022-11-15T01:46:24;6.63;;;4.53;;
16310;SDS011;8264;48.510;8.872;2022-11-15T01:48:53;5.70;;;3.87;;
16310;SDS011;8264;48.510;8.872;2022-11-15T01:51:24;5.83;;;3.97;;
16310;SDS011;8264;48.510;8.872;2022-11-15T01:53:54;9.57;;;4.37;;
16310;SDS011;8264;48.510;8.872;2022-11-15T01:56:22;6.33;;;4.13;;
16310;SDS011;8264;48.510;8.872;2022-11-15T01:58:51;8.90;;;4.50;;
16310;SDS011;8264;48.510;8.872;2022-11-15T02:01:18;5.43;;;3.67;;
16310;SDS011;8264;48.510;8.872;2022-11-15T02:03:48;6.73;;;4.00;;
16310;SDS011;8264;48.510;8.872;2022-11-15T02:06:16;4.80;;;4.10;;
16310;SDS011;8264;48.510;8.872;2022-11-15T02:08:43;5.70;;;4.73;;
16310;SDS011;8264;48.510;8.872;2022-11-15T02:11:10;5.43;;;4.00;;
16310;SDS011;8264;48.510;8.872;2022-11-15T02:13:36;5.33;;;4.33;;
16310;SDS011;8264;48.510;8.872;2022-11-15T02:16:07;5.77;;;3.90;;
16310;SDS011;8264;48.510;8.872;2022-11-15T02:18:37;5.93;;;4.10;;
16310;SDS011;8264;48.510;8.872;2022-11-15T02:21:13;9.53;;;4.40;;
16310;SDS011;8264;48.510;8.872;2022-11-15T02:23:53;5.10;;;4.13;;
16310;SDS011;8264;48.510;8.872;2022-11-15T02:29:25;5.30;;;4.17;;
16310;SDS011;8264;48.510;8.872;2022-11-15T02:31:59;4.50;;;4.10;;
16310;SDS011;8264;48.510;8.872;2022-11-15T02:34:31;6.77;;;4.00;;
16310;SDS011;8264;48.510;8.872;2022-11-15T02:37:02;4.90;;;3.80;;
16310;SDS011;8264;48.510;8.872;2022-11-15T02:39:34;6.97;;;4.43;;
16310;SDS011;8264;48.510;8.872;2022-11-15T02:42:03;5.90;;;4.30;;
16310;SDS011;8264;48.510;8.872;2022-11-15T02:44:53;7.77;;;4.70;;
16310;SDS011;8264;48.510;8.872;2022-11-15T02:47:22;5.13;;;4.40;;
16310;SDS011;8264;48.510;8.872;2022-11-15T02:49:51;6.50;;;4.40;;
16310;SDS011;8264;48.510;8.872;2022-11-15T02:52:19;6.20;;;4.17;;
16310;SDS011;8264;48.510;8.872;2022-11-15T02:54:52;6.53;;;4.63;;
16310;SDS011;8264;48.510;8.872;2022-11-15T02:57:20;6.30;;;4.40;;
16310;SDS011;8264;48.510;8.872;2022-11-15T03:02:37;5.77;;;4.87;;
16310;SDS011;8264;48.510;8.872;2022-11-15T03:05:11;9.87;;;7.37;;
16310;SDS011;8264;48.510;8.872;2022-11-15T03:07:43;12.17;;;7.07;;
16310;SDS011;8264;48.510;8.872;2022-11-15T03:10:17;6.50;;;5.00;;
16310;SDS011;8264;48.510;8.872;2022-11-15T03:12:49;5.60;;;3.97;;
16310;SDS011;8264;48.510;8.872;2022-11-15T03:15:21;5.87;;;4.50;;
16310;SDS011;8264;48.510;8.872;2022-11-15T03:17:53;5.40;;;4.30;;
16310;SDS011;8264;48.510;8.872;2022-11-15T03:20:22;6.83;;;4.07;;
16310;SDS011;8264;48.510;8.872;2022-11-15T03:22:51;6.47;;;4.03;;
16310;SDS011;8264;48.510;8.872;2022-11-15T03:25:18;4.27;;;3.87;;
16310;SDS011;8264;48.510;8.872;2022-11-15T03:27:48;4.77;;;3.90;;
16310;SDS011;8264;48.510;8.872;2022-11-15T03:30:17;7.10;;;3.97;;
16310;SDS011;8264;48.510;8.872;2022-11-15T03:32:45;6.07;;;4.30;;
16310;SDS011;8264;48.510;8.872;2022-11-15T03:35:15;5.57;;;4.13;;
16310;SDS011;8264;48.510;8.872;2022-11-15T03:37:45;5.37;;;4.07;;
16310;SDS011;8264;48.510;8.872;2022-11-15T03:40:16;4.80;;;4.13;;
16310;SDS011;8264;48.510;8.872;2022-11-15T03:42:46;6.47;;;4.00;;
16310;SDS011;8264;48.510;8.872;2022-11-15T03:45:15;4.63;;;3.90;;
16310;SDS011;8264;48.510;8.872;2022-11-15T03:47:45;5.67;;;4.00;;
16310;SDS011;8264;48.510;8.872;2022-11-15T03:50:15;5.53;;;4.00;;
16310;SDS011;8264;48.510;8.872;2022-11-15T03:52:44;4.40;;;3.97;;
16310;SDS011;8264;48.510;8.872;2022-11-15T03:55:13;6.73;;;4.23;;
16310;SDS011;8264;48.510;8.872;2022-11-15T03:57:41;4.90;;;3.90;;
16310;SDS011;8264;48.510;8.872;2022-11-15T04:00:08;5.93;;;3.70;;
16310;SDS011;8264;48.510;8.872;2022-11-15T04:02:36;7.07;;;3.87;;
16310;SDS011;8264;48.510;8.872;2022-11-15T04:05:02;6.30;;;4.30;;
16310;SDS011;8264;48.510;8.872;2022-11-15T04:07:31;6.53;;;4.33;;
16310;SDS011;8264;48.510;8.872;2022-11-15T04:09:57;4.77;;;4.30;;
16310;SDS011;8264;48.510;8.872;2022-11-15T04:12:30;4.63;;;3.90;;
16310;SDS011;8264;48.510;8.872;2022-11-15T04:14:58;4.67;;;4.17;;
16310;SDS011;8264;48.510;8.872;2022-11-15T04:17:35;6.57;;;4.33;;
16310;SDS011;8264;48.510;8.872;2022-11-15T04:20:03;4.57;;;4.13;;
16310;SDS011;8264;48.510;8.872;2022-11-15T04:22:49;6.00;;;4.07;;
16310;SDS011;8264;48.510;8.872;2022-11-15T04:25:36;6.73;;;4.27;;
16310;SDS011;8264;48.510;8.872;2022-11-15T04:28:02;5.50;;;3.80;;
16310;SDS011;8264;48.510;8.872;2022-11-15T04:30:29;5.60;;;4.30;;
16310;SDS011;8264;48.510;8.872;2022-11-15T04:32:55;5.57;;;4.20;;
16310;SDS011;8264;48.510;8.872;2022-11-15T04:35:22;5.20;;;3.80;;
16310;SDS011;8264;48.510;8.872;2022-11-15T04:37:50;4.50;;;3.83;;
16310;SDS011;8264;48.510;8.872;2022-11-15T04:40:16;5.33;;;3.70;;
16310;SDS011;8264;48.510;8.872;2022-11-15T04:42:43;4.47;;;4.07;;
16310;SDS011;8264;48.510;8.872;2022-11-15T04:45:09;5.33;;;3.87;;
16310;SDS011;8264;48.510;8.872;2022-11-15T04:47:36;4.47;;;3.53;;
16310;SDS011;8264;48.510;8.872;2022-11-15T04:50:03;4.47;;;3.63;;
16310;SDS011;8264;48.510;8.872;2022-11-15T04:52:29;7.83;;;4.10;;
16310;SDS011;8264;48.510;8.872;2022-11-15T04:54:57;6.80;;;4.30;;
16310;SDS011;8264;48.510;8.872;2022-11-15T04:57:24;6.53;;;4.40;;
16310;SDS011;8264;48.510;8.872;2022-11-15T04:59:50;6.93;;;5.80;;
16310;SDS011;8264;48.510;8.872;2022-11-15T05:02:17;7.10;;;5.23;;
16310;SDS011;8264;48.510;8.872;2022-11-15T05:04:43;7.07;;;4.40;;
16310;SDS011;8264;48.510;8.872;2022-11-15T05:07:09;6.10;;;3.67;;
16310;SDS011;8264;48.510;8.872;2022-11-15T05:09:35;4.37;;;3.97;;
16310;SDS011;8264;48.510;8.872;2022-11-15T05:12:03;4.93;;;4.07;;
16310;SDS011;8264;48.510;8.872;2022-11-15T05:14:30;6.67;;;3.63;;
16310;SDS011;8264;48.510;8.872;2022-11-15T05:16:56;7.67;;;4.27;;
16310;SDS011;8264;48.510;8.872;2022-11-15T05:19:23;4.53;;;3.67;;
16310;SDS011;8264;48.510;8.872;2022-11-15T05:21:49;4.27;;;3.80;;
16310;SDS011;8264;48.510;8.872;2022-11-15T05:24:16;8.30;;;3.50;;
16310;SDS011;8264;48.510;8.872;2022-11-15T05:26:42;5.03;;;3.57;;
16310;SDS011;8264;48.510;8.872;2022-11-15T05:29:10;5.20;;;3.33;;
16310;SDS011;8264;48.510;8.872;2022-11-15T05:31:38;5.87;;;3.90;;
16310;SDS011;8264;48.510;8.872;2022-11-15T05:34:05;5.47;;;3.30;;
16310;SDS011;8264;48.510;8.872;2022-11-15T05:36:33;5.60;;;3.53;;
16310;SDS011;8264;48.510;8.872;2022-11-15T05:39:01;5.17;;;3.40;;
16310;SDS011;8264;48.510;8.872;2022-11-15T05:41:30;4.87;;;4.17;;
16310;SDS011;8264;48.510;8.872;2022-11-15T05:43:59;5.20;;;4.30;;
16310;SDS011;8264;48.510;8.872;2022-11-15T05:46:27;5.10;;;4.07;;
16310;SDS011;8264;48.510;8.872;2022-11-15T05:48:54;7.53;;;4.33;;
16310;SDS011;8264;48.510;8.872;2022-11-15T05:51:21;7.70;;;5.27;;
16310;SDS011;8264;48.510;8.872;2022-11-15T05:53:48;6.90;;;5.20;;
16310;SDS011;8264;48.510;8.872;2022-11-15T05:56:16;6.17;;;4.27;;
16310;SDS011;8264;48.510;8.872;2022-11-15T05:58:42;5.87;;;4.83;;
16310;SDS011;8264;48.510;8.872;2022-11-15T06:01:09;4.77;;;4.20;;
16310;SDS011;8264;48.510;8.872;2022-11-15T06:03:37;11.73;;;8.83;;
16310;SDS011;8264;48.510;8.872;2022-11-15T06:06:03;11.23;;;8.63;;
16310;SDS011;8264;48.510;8.872;2022-11-15T06:08:30;12.37;;;10.13;;
16310;SDS011;8264;48.510;8.872;2022-11-15T06:10:56;8.70;;;5.53;;
16310;SDS011;8264;48.510;8.872;2022-11-15T06:13:28;11.83;;;5.30;;
16310;SDS011;8264;48.510;8.872;2022-11-15T06:15:55;6.57;;;4.80;;
16310;SDS011;8264;48.510;8.872;2022-11-15T06:18:21;7.10;;;4.43;;
16310;SDS011;8264;48.510;8.872;2022-11-15T06:20:49;9.50;;;6.50;;
16310;SDS011;8264;48.510;8.872;2022-11-15T06:23:16;12.27;;;7.27;;
16310;SDS011;8264;48.510;8.872;2022-11-15T06:25:43;9.17;;;6.83;;
16310;SDS011;8264;48.510;8.872;2022-11-15T06:28:09;26.33;;;17.37;;
16310;SDS011;8264;48.510;8.872;2022-11-15T06:30:36;20.07;;;13.10;;
16310;SDS011;8264;48.510;8.872;2022-11-15T06:33:03;15.40;;;9.90;;
16310;SDS011;8264;48.510;8.872;2022-11-15T06:35:32;16.83;;;10.83;;
16310;SDS011;8264;48.510;8.872;2022-11-15T06:38:03;16.47;;;10.50;;
16310;SDS011;8264;48.510;8.872;2022-11-15T06:40:30;13.43;;;9.97;;
16310;SDS011;8264;48.510;8.872;2022-11-15T06:42:59;22.90;;;14.00;;
16310;SDS011;8264;48.510;8.872;2022-11-15T06:45:26;12.57;;;9.47;;
16310;SDS011;8264;48.510;8.872;2022-11-15T06:47:52;12.47;;;9.37;;
16310;SDS011;8264;48.510;8.872;2022-11-15T06:50:19;12.70;;;8.67;;
16310;SDS011;8264;48.510;8.872;2022-11-15T06:52:46;10.97;;;6.97;;
16310;SDS011;8264;48.510;8.872;2022-11-15T06:55:14;32.20;;;8.00;;
16310;SDS011;8264;48.510;8.872;2022-11-15T06:57:46;21.17;;;8.53;;
16310;SDS011;8264;48.510;8.872;2022-11-15T07:00:13;13.90;;;6.43;;
16310;SDS011;8264;48.510;8.872;2022-11-15T07:02:40;9.63;;;5.70;;
16310;SDS011;8264;48.510;8.872;2022-11-15T07:05:07;7.90;;;5.07;;
16310;SDS011;8264;48.510;8.872;2022-11-15T07:07:34;6.70;;;4.70;;
16310;SDS011;8264;48.510;8.872;2022-11-15T07:10:00;7.70;;;6.20;;
16310;SDS011;8264;48.510;8.872;2022-11-15T07:12:28;6.60;;;5.40;;
16310;SDS011;8264;48.510;8.872;2022-11-15T07:14:55;6.37;;;4.87;;
16310;SDS011;8264;48.510;8.872;2022-11-15T07:17:21;6.10;;;4.80;;
16310;SDS011;8264;48.510;8.872;2022-11-15T07:19:48;6.27;;;5.10;;
16310;SDS011;8264;48.510;8.872;2022-11-15T07:22:14;10.53;;;5.40;;
16310;SDS011;8264;48.510;8.872;2022-11-15T07:24:41;12.47;;;4.50;;
16310;SDS011;8264;48.510;8.872;2022-11-15T07:27:07;7.77;;;4.77;;
16310;SDS011;8264;48.510;8.872;2022-11-15T07:29:35;7.77;;;4.20;;
16310;SDS011;8264;48.510;8.872;2022-11-15T07:32:02;6.30;;;4.60;;
16310;SDS011;8264;48.510;8.872;2022-11-15T07:34:29;10.20;;;5.73;;
16310;SDS011;8264;48.510;8.872;2022-11-15T07:36:55;7.30;;;5.20;;
16310;SDS011;8264;48.510;8.872;2022-11-15T07:39:22;8.07;;;5.60;;
16310;SDS011;8264;48.510;8.872;2022-11-15T07:41:48;7.70;;;5.87;;
16310;SDS011;8264;48.510;8.872;2022-11-15T07:44:36;7.90;;;5.83;;
16310;SDS011;8264;48.510;8.872;2022-11-15T07:47:03;13.03;;;7.13;;
16310;SDS011;8264;48.510;8.872;2022-11-15T07:49:29;11.50;;;7.60;;
16310;SDS011;8264;48.510;8.872;2022-11-15T07:51:56;8.13;;;5.97;;
16310;SDS011;8264;48.510;8.872;2022-11-15T07:54:23;6.57;;;4.83;;
16310;SDS011;8264;48.510;8.872;2022-11-15T07:56:49;6.50;;;4.60;;
16310;SDS011;8264;48.510;8.872;2022-11-15T07:59:16;5.70;;;5.10;;
16310;SDS011;8264;48.510;8.872;2022-11-15T08:01:47;7.80;;;5.07;;
16310;SDS011;8264;48.510;8.872;2022-11-15T08:04:13;9.97;;;5.37;;
16310;SDS011;8264;48.510;8.872;2022-11-15T08:06:45;4.80;;;4.30;;
16310;SDS011;8264;48.510;8.872;2022-11-15T08:09:12;6.47;;;5.07;;
16310;SDS011;8264;48.510;8.872;2022-11-15T08:11:38;6.97;;;5.03;;
16310;SDS011;8264;48.510;8.872;2022-11-15T08:14:05;6.17;;;5.03;;
16310;SDS011;8264;48.510;8.872;2022-11-15T08:16:33;6.23;;;4.50;;
16310;SDS011;8264;48.510;8.872;2022-11-15T08:19:01;5.33;;;4.57;;
16310;SDS011;8264;48.510;8.872;2022-11-15T08:21:28;6.40;;;4.27;;
16310;SDS011;8264;48.510;8.872;2022-11-15T08:23:54;6.27;;;4.43;;
16310;SDS011;8264;48.510;8.872;2022-11-15T08:26:21;4.97;;;4.20;;
16310;SDS011;8264;48.510;8.872;2022-11-15T08:28:47;5.30;;;3.93;;
16310;SDS011;8264;48.510;8.872;2022-11-15T08:31:14;6.40;;;4.63;;
16310;SDS011;8264;48.510;8.872;2022-11-15T08:33:41;4.67;;;3.67;;
16310;SDS011;8264;48.510;8.872;2022-11-15T08:36:11;4.37;;;3.93;;
16310;SDS011;8264;48.510;8.872;2022-11-15T08:38:39;4.40;;;3.30;;
16310;SDS011;8264;48.510;8.872;2022-11-15T08:41:06;6.73;;;3.77;;
16310;SDS011;8264;48.510;8.872;2022-11-15T08:43:32;4.87;;;3.57;;
16310;SDS011;8264;48.510;8.872;2022-11-15T08:45:59;6.60;;;3.57;;
16310;SDS011;8264;48.510;8.872;2022-11-15T08:48:26;4.17;;;3.40;;
16310;SDS011;8264;48.510;8.872;2022-11-15T08:50:53;4.70;;;3.03;;
16310;SDS011;8264;48.510;8.872;2022-11-15T08:53:21;4.97;;;3.40;;
16310;SDS011;8264;48.510;8.872;2022-11-15T08:55:48;5.27;;;3.60;;
16310;SDS011;8264;48.510;8.872;2022-11-15T08:58:15;3.63;;;3.30;;
16310;SDS011;8264;48.510;8.872;2022-11-15T09:00:41;5.87;;;3.13;;
16310;SDS011;8264;48.510;8.872;2022-11-15T09:03:08;3.90;;;3.27;;
16310;SDS011;8264;48.510;8.872;2022-11-15T09:05:35;5.00;;;3.33;;
16310;SDS011;8264;48.510;8.872;2022-11-15T09:08:02;4.33;;;3.47;;
16310;SDS011;8264;48.510;8.872;2022-11-15T09:10:30;4.30;;;3.50;;
16310;SDS011;8264;48.510;8.872;2022-11-15T09:12:56;6.10;;;3.80;;
16310;SDS011;8264;48.510;8.872;2022-11-15T09:15:23;4.43;;;3.57;;
16310;SDS011;8264;48.510;8.872;2022-11-15T09:17:50;4.37;;;3.40;;
16310;SDS011;8264;48.510;8.872;2022-11-15T09:20:16;6.40;;;3.43;;
16310;SDS011;8264;48.510;8.872;2022-11-15T09:22:43;7.43;;;3.10;;
16310;SDS011;8264;48.510;8.872;2022-11-15T09:25:10;3.87;;;3.10;;
16310;SDS011;8264;48.510;8.872;2022-11-15T09:27:38;5.87;;;4.10;;
16310;SDS011;8264;48.510;8.872;2022-11-15T09:30:05;4.53;;;3.60;;
16310;SDS011;8264;48.510;8.872;2022-11-15T09:32:32;10.13;;;4.60;;
16310;SDS011;8264;48.510;8.872;2022-11-15T09:34:58;6.93;;;4.17;;
16310;SDS011;8264;48.510;8.872;2022-11-15T09:37:25;5.40;;;4.47;;
16310;SDS011;8264;48.510;8.872;2022-11-15T09:39:52;5.73;;;4.10;;
16310;SDS011;8264;48.510;8.872;2022-11-15T09:42:22;7.37;;;3.90;;
16310;SDS011;8264;48.510;8.872;2022-11-15T09:44:59;6.80;;;4.50;;
16310;SDS011;8264;48.510;8.872;2022-11-15T09:47:49;11.03;;;4.13;;
16310;SDS011;8264;48.510;8.872;2022-11-15T09:50:36;12.07;;;4.20;;
16310;SDS011;8264;48.510;8.872;2022-11-15T09:53:08;4.97;;;3.47;;
16310;SDS011;8264;48.510;8.872;2022-11-15T09:55:39;7.57;;;3.30;;
16310;SDS011;8264;48.510;8.872;2022-11-15T09:58:15;8.27;;;3.60;;
16310;SDS011;8264;48.510;8.872;2022-11-15T10:00:47;6.53;;;3.10;;
16310;SDS011;8264;48.510;8.872;2022-11-15T10:03:18;5.87;;;2.77;;
16310;SDS011;8264;48.510;8.872;2022-11-15T10:05:50;4.70;;;2.83;;
16310;SDS011;8264;48.510;8.872;2022-11-15T10:08:28;5.10;;;3.37;;
16310;SDS011;8264;48.510;8.872;2022-11-15T10:11:01;4.73;;;2.60;;
16310;SDS011;8264;48.510;8.872;2022-11-15T10:13:30;3.27;;;2.60;;
16310;SDS011;8264;48.510;8.872;2022-11-15T10:16:01;4.87;;;2.70;;
16310;SDS011;8264;48.510;8.872;2022-11-15T10:18:34;4.87;;;2.50;;
16310;SDS011;8264;48.510;8.872;2022-11-15T10:21:02;2.53;;;2.23;;
16310;SDS011;8264;48.510;8.872;2022-11-15T10:23:39;2.63;;;2.30;;
16310;SDS011;8264;48.510;8.872;2022-11-15T10:26:06;5.43;;;2.50;;
16310;SDS011;8264;48.510;8.872;2022-11-15T10:28:34;2.80;;;2.33;;
16310;SDS011;8264;48.510;8.872;2022-11-15T10:31:02;4.17;;;2.40;;
16310;SDS011;8264;48.510;8.872;2022-11-15T10:33:30;2.60;;;2.17;;
16310;SDS011;8264;48.510;8.872;2022-11-15T10:36:14;3.50;;;2.63;;
16310;SDS011;8264;48.510;8.872;2022-11-15T10:38:52;4.80;;;2.57;;
16310;SDS011;8264;48.510;8.872;2022-11-15T10:41:28;5.20;;;2.63;;
16310;SDS011;8264;48.510;8.872;2022-11-15T10:44:07;4.27;;;2.60;;
16310;SDS011;8264;48.510;8.872;2022-11-15T10:46:46;7.10;;;3.27;;
16310;SDS011;8264;48.510;8.872;2022-11-15T10:49:15;5.60;;;3.60;;
16310;SDS011;8264;48.510;8.872;2022-11-15T10:51:44;3.97;;;3.33;;
16310;SDS011;8264;48.510;8.872;2022-11-15T10:54:12;6.13;;;4.33;;
16310;SDS011;8264;48.510;8.872;2022-11-15T10:56:41;4.63;;;3.87;;
16310;SDS011;8264;48.510;8.872;2022-11-15T10:59:14;6.03;;;3.23;;
16310;SDS011;8264;48.510;8.872;2022-11-15T11:01:47;9.23;;;3.63;;
16310;SDS011;8264;48.510;8.872;2022-11-15T11:04:14;6.30;;;3.47;;
16310;SDS011;8264;48.510;8.872;2022-11-15T11:06:47;6.73;;;3.27;;
16310;SDS011;8264;48.510;8.872;2022-11-15T11:09:22;6.73;;;3.83;;
16310;SDS011;8264;48.510;8.872;2022-11-15T11:11:54;5.27;;;4.33;;
16310;SDS011;8264;48.510;8.872;2022-11-15T11:14:22;4.37;;;3.77;;
16310;SDS011;8264;48.510;8.872;2022-11-15T11:16:54;4.03;;;3.63;;
16310;SDS011;8264;48.510;8.872;2022-11-15T11:22:06;4.63;;;3.33;;
16310;SDS011;8264;48.510;8.872;2022-11-15T11:24:39;5.37;;;3.73;;
16310;SDS011;8264;48.510;8.872;2022-11-15T11:27:16;8.37;;;5.87;;
16310;SDS011;8264;48.510;8.872;2022-11-15T11:29:51;7.40;;;4.73;;
16310;SDS011;8264;48.510;8.872;2022-11-15T11:32:31;6.90;;;4.30;;
16310;SDS011;8264;48.510;8.872;2022-11-15T11:35:10;6.97;;;4.70;;
16310;SDS011;8264;48.510;8.872;2022-11-15T11:37:40;5.27;;;4.20;;
16310;SDS011;8264;48.510;8.872;2022-11-15T11:40:14;6.63;;;4.17;;
16310;SDS011;8264;48.510;8.872;2022-11-15T11:42:47;6.87;;;4.40;;
16310;SDS011;8264;48.510;8.872;2022-11-15T11:45:24;7.37;;;4.30;;
16310;SDS011;8264;48.510;8.872;2022-11-15T11:48:13;7.40;;;4.80;;
16310;SDS011;8264;48.510;8.872;2022-11-15T11:50:41;8.20;;;4.90;;
16310;SDS011;8264;48.510;8.872;2022-11-15T11:53:11;7.10;;;5.73;;
16310;SDS011;8264;48.510;8.872;2022-11-15T11:55:39;6.67;;;4.83;;
16310;SDS011;8264;48.510;8.872;2022-11-15T11:58:11;5.40;;;4.70;;
16310;SDS011;8264;48.510;8.872;2022-11-15T12:00:43;6.70;;;4.53;;
16310;SDS011;8264;48.510;8.872;2022-11-15T12:03:16;4.97;;;4.10;;
16310;SDS011;8264;48.510;8.872;2022-11-15T12:05:49;6.17;;;4.07;;
16310;SDS011;8264;48.510;8.872;2022-11-15T12:08:22;10.40;;;5.40;;
16310;SDS011;8264;48.510;8.872;2022-11-15T12:10:53;8.90;;;4.73;;
16310;SDS011;8264;48.510;8.872;2022-11-15T12:13:24;7.03;;;4.93;;
16310;SDS011;8264;48.510;8.872;2022-11-15T12:15:53;7.67;;;5.80;;
16310;SDS011;8264;48.510;8.872;2022-11-15T12:18:24;7.40;;;5.77;;
16310;SDS011;8264;48.510;8.872;2022-11-15T12:20:51;6.80;;;4.97;;
16310;SDS011;8264;48.510;8.872;2022-11-15T12:23:20;8.00;;;5.53;;
16310;SDS011;8264;48.510;8.872;2022-11-15T12:25:52;10.00;;;5.40;;
16310;SDS011;8264;48.510;8.872;2022-11-15T12:28:24;8.27;;;6.47;;
16310;SDS011;8264;48.510;8.872;2022-11-15T12:30:59;7.20;;;4.93;;
16310;SDS011;8264;48.510;8.872;2022-11-15T12:33:30;12.53;;;4.50;;
16310;SDS011;8264;48.510;8.872;2022-11-15T12:35:59;7.63;;;5.03;;
16310;SDS011;8264;48.510;8.872;2022-11-15T12:41:23;6.30;;;5.03;;
16310;SDS011;8264;48.510;8.872;2022-11-15T12:43:50;8.23;;;5.03;;
16310;SDS011;8264;48.510;8.872;2022-11-15T12:46:20;6.30;;;4.97;;
16310;SDS011;8264;48.510;8.872;2022-11-15T12:48:54;7.50;;;5.07;;
16310;SDS011;8264;48.510;8.872;2022-11-15T12:51:23;7.03;;;5.57;;
16310;SDS011;8264;48.510;8.872;2022-11-15T12:57:39;5.90;;;4.93;;
16310;SDS011;8264;48.510;8.872;2022-11-15T13:03:27;7.87;;;6.00;;
16310;SDS011;8264;48.510;8.872;2022-11-15T13:06:05;7.30;;;6.50;;
16310;SDS011;8264;48.510;8.872;2022-11-15T13:08:41;9.33;;;7.00;;
16310;SDS011;8264;48.510;8.872;2022-11-15T13:14:37;10.73;;;7.83;;
16310;SDS011;8264;48.510;8.872;2022-11-15T13:17:12;13.20;;;7.20;;
16310;SDS011;8264;48.510;8.872;2022-11-15T13:19:59;9.13;;;7.07;;
16310;SDS011;8264;48.510;8.872;2022-11-15T13:22:48;11.63;;;7.00;;
16310;SDS011;8264;48.510;8.872;2022-11-15T13:25:38;10.80;;;7.23;;
16310;SDS011;8264;48.510;8.872;2022-11-15T13:28:18;8.50;;;7.23;;
16310;SDS011;8264;48.510;8.872;2022-11-15T13:30:49;13.67;;;7.17;;
16310;SDS011;8264;48.510;8.872;2022-11-15T13:33:17;10.30;;;7.07;;
16310;SDS011;8264;48.510;8.872;2022-11-15T13:35:48;9.60;;;6.50;;
16310;SDS011;8264;48.510;8.872;2022-11-15T13:38:19;8.50;;;6.63;;
16310;SDS011;8264;48.510;8.872;2022-11-15T13:40:52;8.97;;;7.40;;
16310;SDS011;8264;48.510;8.872;2022-11-15T13:43:23;11.73;;;7.63;;
16310;SDS011;8264;48.510;8.872;2022-11-15T13:46:03;13.87;;;7.77;;
16310;SDS011;8264;48.510;8.872;2022-11-15T13:48:33;10.70;;;7.20;;
16310;SDS011;8264;48.510;8.872;2022-11-15T13:51:00;12.23;;;7.73;;
16310;SDS011;8264;48.510;8.872;2022-11-15T13:53:29;13.27;;;8.50;;
16310;SDS011;8264;48.510;8.872;2022-11-15T13:55:56;13.73;;;9.67;;
16310;SDS011;8264;48.510;8.872;2022-11-15T13:58:24;12.33;;;9.43;;
16310;SDS011;8264;48.510;8.872;2022-11-15T14:00:57;11.70;;;9.27;;
16310;SDS011;8264;48.510;8.872;2022-11-15T14:03:26;13.93;;;9.37;;
16310;SDS011;8264;48.510;8.872;2022-11-15T14:06:04;12.53;;;10.73;;
16310;SDS011;8264;48.510;8.872;2022-11-15T14:08:34;18.17;;;14.80;;
16310;SDS011;8264;48.510;8.872;2022-11-15T14:11:08;13.90;;;10.13;;
16310;SDS011;8264;48.510;8.872;2022-11-15T14:13:58;9.57;;;8.20;;
16310;SDS011;8264;48.510;8.872;2022-11-15T14:16:32;11.20;;;8.10;;
16310;SDS011;8264;48.510;8.872;2022-11-15T14:18:59;10.07;;;7.70;;
16310;SDS011;8264;48.510;8.872;2022-11-15T14:21:26;11.47;;;7.10;;
16310;SDS011;8264;48.510;8.872;2022-11-15T14:23:54;9.93;;;7.50;;
16310;SDS011;8264;48.510;8.872;2022-11-15T14:26:39;10.90;;;7.93;;
16310;SDS011;8264;48.510;8.872;2022-11-15T14:29:23;34.60;;;22.87;;
16310;SDS011;8264;48.510;8.872;2022-11-15T14:31:50;14.33;;;10.23;;
16310;SDS011;8264;48.510;8.872;2022-11-15T14:34:17;11.30;;;6.60;;
16310;SDS011;8264;48.510;8.872;2022-11-15T14:36:43;9.53;;;5.80;;
16310;SDS011;8264;48.510;8.872;2022-11-15T14:39:12;8.30;;;5.63;;
16310;SDS011;8264;48.510;8.872;2022-11-15T14:41:38;11.53;;;5.53;;
16310;SDS011;8264;48.510;8.872;2022-11-15T14:44:05;12.53;;;5.47;;
16310;SDS011;8264;48.510;8.872;2022-11-15T14:46:32;17.13;;;6.13;;
16310;SDS011;8264;48.510;8.872;2022-11-15T14:48:59;11.27;;;7.10;;
16310;SDS011;8264;48.510;8.872;2022-11-15T14:51:26;7.73;;;5.77;;
16310;SDS011;8264;48.510;8.872;2022-11-15T14:53:53;9.40;;;5.40;;
16310;SDS011;8264;48.510;8.872;2022-11-15T14:56:21;7.07;;;5.70;;
16310;SDS011;8264;48.510;8.872;2022-11-15T14:58:48;10.87;;;5.67;;
16310;SDS011;8264;48.510;8.872;2022-11-15T15:01:16;6.23;;;5.33;;
16310;SDS011;8264;48.510;8.872;2022-11-15T15:03:45;8.13;;;5.23;;
16310;SDS011;8264;48.510;8.872;2022-11-15T15:06:11;9.97;;;5.67;;
16310;SDS011;8264;48.510;8.872;2022-11-15T15:08:38;9.57;;;6.10;;
16310;SDS011;8264;48.510;8.872;2022-11-15T15:11:07;8.47;;;6.30;;
16310;SDS011;8264;48.510;8.872;2022-11-15T15:13:38;9.37;;;6.87;;
16310;SDS011;8264;48.510;8.872;2022-11-15T15:16:04;8.03;;;6.20;;
16310;SDS011;8264;48.510;8.872;2022-11-15T15:18:31;10.13;;;6.83;;
16310;SDS011;8264;48.510;8.872;2022-11-15T15:20:58;9.20;;;6.67;;
16310;SDS011;8264;48.510;8.872;2022-11-15T15:23:27;9.20;;;6.67;;
16310;SDS011;8264;48.510;8.872;2022-11-15T15:25:56;10.20;;;7.57;;
16310;SDS011;8264;48.510;8.872;2022-11-15T15:28:23;9.50;;;7.50;;
16310;SDS011;8264;48.510;8.872;2022-11-15T15:30:51;9.60;;;6.80;;
16310;SDS011;8264;48.510;8.872;2022-11-15T15:33:17;10.43;;;6.57;;
16310;SDS011;8264;48.510;8.872;2022-11-15T15:35:44;13.10;;;8.50;;